sensor_id;sensor_type;location;lat;lon;timestamp;temperature;humidity
42989;DHT22;28622;43.716;20.668;2023-01-19T00:00:07;10.30;99.90
42989;DHT22;28622;43.716;20.668;2023-01-19T00:02:35;10.30;99.90
42989;DHT22;28622;43.716;20.668;2023-01-19T00:05:01;10.30;99.90
42989;DHT22;28622;43.716;20.668;2023-01-19T00:07:31;10.30;99.90
42989;DHT22;28622;43.716;20.668;2023-01-19T00:09:57;10.30;99.90
42989;DHT22;28622;43.716;20.668;2023-01-19T00:12:23;10.30;99.90
42989;DHT22;28622;43.716;20.668;2023-01-19T00:14:49;10.20;99.90
42989;DHT22;28622;43.716;20.668;2023-01-19T00:17:15;10.30;99.90
42989;DHT22;28622;43.716;20.668;2023-01-19T00:19:41;10.20;99.90
42989;DHT22;28622;43.716;20.668;2023-01-19T00:22:07;10.00;99.90
42989;DHT22;28622;43.716;20.668;2023-01-19T00:24:32;9.70;99.90
42989;DHT22;28622;43.716;20.668;2023-01-19T00:26:59;9.80;99.90
42989;DHT22;28622;43.716;20.668;2023-01-19T00:29:26;9.60;99.90
42989;DHT22;28622;43.716;20.668;2023-01-19T00:31:55;9.60;99.90
42989;DHT22;28622;43.716;20.668;2023-01-19T00:34:20;9.60;99.90
42989;DHT22;28622;43.716;20.668;2023-01-19T00:36:46;9.40;99.90
42989;DHT22;28622;43.716;20.668;2023-01-19T00:39:12;9.40;99.90
42989;DHT22;28622;43.716;20.668;2023-01-19T00:41:38;9.40;99.90
42989;DHT22;28622;43.716;20.668;2023-01-19T00:44:22;9.40;99.90
42989;DHT22;28622;43.716;20.668;2023-01-19T00:46:48;9.30;99.90
42989;DHT22;28622;43.716;20.668;2023-01-19T00:49:13;9.30;99.90
42989;DHT22;28622;43.716;20.668;2023-01-19T00:51:39;9.30;99.90
42989;DHT22;28622;43.716;20.668;2023-01-19T00:54:05;9.30;99.90
42989;DHT22;28622;43.716;20.668;2023-01-19T00:56:35;9.30;99.90
42989;DHT22;28622;43.716;20.668;2023-01-19T00:59:01;9.30;99.90
42989;DHT22;28622;43.716;20.668;2023-01-19T01:01:27;9.30;99.90
42989;DHT22;28622;43.716;20.668;2023-01-19T01:03:53;9.30;99.90
42989;DHT22;28622;43.716;20.668;2023-01-19T01:06:21;9.30;99.90
42989;DHT22;28622;43.716;20.668;2023-01-19T01:08:47;9.30;99.90
42989;DHT22;28622;43.716;20.668;2023-01-19T01:11:12;9.30;99.90
42989;DHT22;28622;43.716;20.668;2023-01-19T01:13:38;9.40;99.90
42989;DHT22;28622;43.716;20.668;2023-01-19T01:16:04;9.30;99.90
42989;DHT22;28622;43.716;20.668;2023-01-19T01:18:32;9.40;99.90
42989;DHT22;28622;43.716;20.668;2023-01-19T01:21:05;9.50;99.90
42989;DHT22;28622;43.716;20.668;2023-01-19T01:23:31;9.40;99.90
42989;DHT22;28622;43.716;20.668;2023-01-19T01:25:57;9.40;99.90
42989;DHT22;28622;43.716;20.668;2023-01-19T01:28:22;9.40;99.90
42989;DHT22;28622;43.716;20.668;2023-01-19T01:30:53;9.50;99.90
42989;DHT22;28622;43.716;20.668;2023-01-19T01:33:19;9.50;99.90
42989;DHT22;28622;43.716;20.668;2023-01-19T01:35:44;9.60;99.90
42989;DHT22;28622;43.716;20.668;2023-01-19T01:38:10;9.60;99.90
42989;DHT22;28622;43.716;20.668;2023-01-19T01:40:39;9.60;99.90
42989;DHT22;28622;43.716;20.668;2023-01-19T01:43:13;9.70;99.90
42989;DHT22;28622;43.716;20.668;2023-01-19T01:45:40;9.70;99.90
42989;DHT22;28622;43.716;20.668;2023-01-19T01:48:26;9.70;99.90
42989;DHT22;28622;43.716;20.668;2023-01-19T01:51:02;9.70;99.90
42989;DHT22;28622;43.716;20.668;2023-01-19T01:56:44;9.80;99.90
42989;DHT22;28622;43.716;20.668;2023-01-19T02:02:20;9.90;99.90
42989;DHT22;28622;43.716;20.668;2023-01-19T02:10:29;9.90;99.90
42989;DHT22;28622;43.716;20.668;2023-01-19T02:13:14;9.80;99.90
42989;DHT22;28622;43.716;20.668;2023-01-19T02:15:50;9.70;99.90
42989;DHT22;28622;43.716;20.668;2023-01-19T02:18:17;9.60;99.90
42989;DHT22;28622;43.716;20.668;2023-01-19T02:23:56;9.60;99.90
42989;DHT22;28622;43.716;20.668;2023-01-19T02:26:29;9.60;99.90
42989;DHT22;28622;43.716;20.668;2023-01-19T02:29:05;9.60;99.90
42989;DHT22;28622;43.716;20.668;2023-01-19T02:31:33;9.60;99.90
42989;DHT22;28622;43.716;20.668;2023-01-19T02:34:00;9.60;99.90
42989;DHT22;28622;43.716;20.668;2023-01-19T02:36:31;9.70;99.90
42989;DHT22;28622;43.716;20.668;2023-01-19T02:39:00;9.70;99.90
42989;DHT22;28622;43.716;20.668;2023-01-19T02:41:29;9.70;99.90
42989;DHT22;28622;43.716;20.668;2023-01-19T02:44:00;9.60;99.90
42989;DHT22;28622;43.716;20.668;2023-01-19T02:46:27;9.60;99.90
42989;DHT22;28622;43.716;20.668;2023-01-19T02:48:58;9.60;99.90
42989;DHT22;28622;43.716;20.668;2023-01-19T02:51:24;9.70;99.90
42989;DHT22;28622;43.716;20.668;2023-01-19T02:54:09;9.70;99.90
42989;DHT22;28622;43.716;20.668;2023-01-19T03:08:31;9.70;99.90
42989;DHT22;28622;43.716;20.668;2023-01-19T03:11:11;9.70;99.90
42989;DHT22;28622;43.716;20.668;2023-01-19T03:13:57;9.70;99.90
42989;DHT22;28622;43.716;20.668;2023-01-19T03:19:21;9.80;99.90
42989;DHT22;28622;43.716;20.668;2023-01-19T03:21:51;9.80;99.90
42989;DHT22;28622;43.716;20.668;2023-01-19T03:24:19;9.80;99.90
42989;DHT22;28622;43.716;20.668;2023-01-19T03:26:50;9.80;99.90
42989;DHT22;28622;43.716;20.668;2023-01-19T03:29:17;9.90;99.90
42989;DHT22;28622;43.716;20.668;2023-01-19T03:31:46;9.60;99.90
42989;DHT22;28622;43.716;20.668;2023-01-19T03:34:16;9.60;99.90
42989;DHT22;28622;43.716;20.668;2023-01-19T03:36:45;9.50;99.90
42989;DHT22;28622;43.716;20.668;2023-01-19T03:39:18;9.60;99.90
42989;DHT22;28622;43.716;20.668;2023-01-19T03:41:47;9.60;99.90
42989;DHT22;28622;43.716;20.668;2023-01-19T03:44:15;9.60;99.90
42989;DHT22;28622;43.716;20.668;2023-01-19T03:46:41;9.60;99.90
42989;DHT22;28622;43.716;20.668;2023-01-19T03:49:08;9.60;99.90
42989;DHT22;28622;43.716;20.668;2023-01-19T03:51:37;9.60;99.90
42989;DHT22;28622;43.716;20.668;2023-01-19T03:54:05;9.60;99.90
42989;DHT22;28622;43.716;20.668;2023-01-19T03:56:34;9.60;99.90
42989;DHT22;28622;43.716;20.668;2023-01-19T03:59:00;9.60;99.90
42989;DHT22;28622;43.716;20.668;2023-01-19T04:01:26;9.60;99.90
42989;DHT22;28622;43.716;20.668;2023-01-19T04:03:52;9.60;99.90
42989;DHT22;28622;43.716;20.668;2023-01-19T04:06:19;9.60;99.90
42989;DHT22;28622;43.716;20.668;2023-01-19T04:08:49;9.50;99.90
42989;DHT22;28622;43.716;20.668;2023-01-19T04:11:16;9.50;99.90
42989;DHT22;28622;43.716;20.668;2023-01-19T04:13:41;9.50;99.90
42989;DHT22;28622;43.716;20.668;2023-01-19T04:16:09;9.50;99.90
42989;DHT22;28622;43.716;20.668;2023-01-19T04:18:35;9.50;99.90
42989;DHT22;28622;43.716;20.668;2023-01-19T04:21:02;9.40;99.90
42989;DHT22;28622;43.716;20.668;2023-01-19T04:23:29;9.50;99.90
42989;DHT22;28622;43.716;20.668;2023-01-19T04:25:58;9.50;99.90
42989;DHT22;28622;43.716;20.668;2023-01-19T04:28:25;9.50;99.90
42989;DHT22;28622;43.716;20.668;2023-01-19T04:30:51;9.50;99.90
42989;DHT22;28622;43.716;20.668;2023-01-19T04:33:18;9.60;99.90
42989;DHT22;28622;43.716;20.668;2023-01-19T04:35:44;9.50;99.90
42989;DHT22;28622;43.716;20.668;2023-01-19T04:38:10;9.60;99.90
42989;DHT22;28622;43.716;20.668;2023-01-19T04:40:36;9.60;99.90
42989;DHT22;28622;43.716;20.668;2023-01-19T04:43:01;9.60;99.90
42989;DHT22;28622;43.716;20.668;2023-01-19T04:45:30;9.60;99.90
42989;DHT22;28622;43.716;20.668;2023-01-19T04:47:56;9.60;99.90
42989;DHT22;28622;43.716;20.668;2023-01-19T04:50:21;9.60;99.90
42989;DHT22;28622;43.716;20.668;2023-01-19T04:52:47;9.60;99.90
42989;DHT22;28622;43.716;20.668;2023-01-19T04:55:14;9.60;99.90
42989;DHT22;28622;43.716;20.668;2023-01-19T04:57:40;9.70;99.90
42989;DHT22;28622;43.716;20.668;2023-01-19T05:00:06;9.70;99.90
42989;DHT22;28622;43.716;20.668;2023-01-19T05:02:32;9.70;99.90
42989;DHT22;28622;43.716;20.668;2023-01-19T05:04:59;9.70;99.90
42989;DHT22;28622;43.716;20.668;2023-01-19T05:07:25;9.70;99.90
42989;DHT22;28622;43.716;20.668;2023-01-19T05:09:51;9.70;99.90
42989;DHT22;28622;43.716;20.668;2023-01-19T05:12:17;9.70;99.90
42989;DHT22;28622;43.716;20.668;2023-01-19T05:14:42;9.70;99.90
42989;DHT22;28622;43.716;20.668;2023-01-19T05:17:08;9.70;99.90
42989;DHT22;28622;43.716;20.668;2023-01-19T05:19:34;9.70;99.90
42989;DHT22;28622;43.716;20.668;2023-01-19T05:22:04;9.70;99.90
42989;DHT22;28622;43.716;20.668;2023-01-19T05:24:30;9.60;99.90
42989;DHT22;28622;43.716;20.668;2023-01-19T05:26:57;9.60;99.90
42989;DHT22;28622;43.716;20.668;2023-01-19T05:29:23;9.60;99.90
42989;DHT22;28622;43.716;20.668;2023-01-19T05:31:48;9.60;99.90
42989;DHT22;28622;43.716;20.668;2023-01-19T05:34:14;9.60;99.90
42989;DHT22;28622;43.716;20.668;2023-01-19T05:36:40;9.60;99.90
42989;DHT22;28622;43.716;20.668;2023-01-19T05:39:06;9.50;99.90
42989;DHT22;28622;43.716;20.668;2023-01-19T05:41:32;9.50;99.90
42989;DHT22;28622;43.716;20.668;2023-01-19T05:43:58;9.40;99.90
42989;DHT22;28622;43.716;20.668;2023-01-19T05:46:25;9.40;99.90
42989;DHT22;28622;43.716;20.668;2023-01-19T05:48:51;9.40;99.90
42989;DHT22;28622;43.716;20.668;2023-01-19T05:51:17;9.40;99.90
42989;DHT22;28622;43.716;20.668;2023-01-19T05:53:42;9.40;99.90
42989;DHT22;28622;43.716;20.668;2023-01-19T05:56:09;9.50;99.90
42989;DHT22;28622;43.716;20.668;2023-01-19T05:58:36;9.40;99.90
42989;DHT22;28622;43.716;20.668;2023-01-19T06:01:08;9.40;99.90
42989;DHT22;28622;43.716;20.668;2023-01-19T06:03:34;9.40;99.90
42989;DHT22;28622;43.716;20.668;2023-01-19T06:06:01;9.40;99.90
42989;DHT22;28622;43.716;20.668;2023-01-19T06:08:27;9.40;99.90
42989;DHT22;28622;43.716;20.668;2023-01-19T06:10:53;9.50;99.90
42989;DHT22;28622;43.716;20.668;2023-01-19T06:13:19;9.60;99.90
42989;DHT22;28622;43.716;20.668;2023-01-19T06:15:44;9.70;99.90
42989;DHT22;28622;43.716;20.668;2023-01-19T06:18:11;9.70;99.90
42989;DHT22;28622;43.716;20.668;2023-01-19T06:20:37;9.70;99.90
42989;DHT22;28622;43.716;20.668;2023-01-19T06:23:03;9.70;99.90
42989;DHT22;28622;43.716;20.668;2023-01-19T06:25:29;9.70;99.90
42989;DHT22;28622;43.716;20.668;2023-01-19T06:27:54;9.70;99.90
42989;DHT22;28622;43.716;20.668;2023-01-19T06:30:21;9.70;99.90
42989;DHT22;28622;43.716;20.668;2023-01-19T06:32:46;9.70;99.90
42989;DHT22;28622;43.716;20.668;2023-01-19T06:35:12;9.70;99.90
42989;DHT22;28622;43.716;20.668;2023-01-19T06:37:39;9.70;99.90
42989;DHT22;28622;43.716;20.668;2023-01-19T06:40:05;9.70;99.90
42989;DHT22;28622;43.716;20.668;2023-01-19T06:42:31;9.60;99.90
42989;DHT22;28622;43.716;20.668;2023-01-19T06:44:57;9.60;99.90
42989;DHT22;28622;43.716;20.668;2023-01-19T06:47:23;9.60;99.90
42989;DHT22;28622;43.716;20.668;2023-01-19T06:49:49;9.60;99.90
42989;DHT22;28622;43.716;20.668;2023-01-19T06:52:15;9.60;99.90
42989;DHT22;28622;43.716;20.668;2023-01-19T06:54:42;9.60;99.90
42989;DHT22;28622;43.716;20.668;2023-01-19T06:57:09;9.60;99.90
42989;DHT22;28622;43.716;20.668;2023-01-19T06:59:36;9.70;99.90
42989;DHT22;28622;43.716;20.668;2023-01-19T07:02:02;9.70;99.90
42989;DHT22;28622;43.716;20.668;2023-01-19T07:04:28;9.80;99.90
42989;DHT22;28622;43.716;20.668;2023-01-19T07:06:54;10.20;99.90
42989;DHT22;28622;43.716;20.668;2023-01-19T07:09:20;10.40;99.90
42989;DHT22;28622;43.716;20.668;2023-01-19T07:11:46;10.50;99.90
42989;DHT22;28622;43.716;20.668;2023-01-19T07:14:13;10.50;99.90
42989;DHT22;28622;43.716;20.668;2023-01-19T07:16:38;10.50;99.90
42989;DHT22;28622;43.716;20.668;2023-01-19T07:19:04;10.40;99.90
42989;DHT22;28622;43.716;20.668;2023-01-19T07:21:30;10.30;99.90
42989;DHT22;28622;43.716;20.668;2023-01-19T07:23:56;10.20;99.90
42989;DHT22;28622;43.716;20.668;2023-01-19T07:26:22;10.20;99.90
42989;DHT22;28622;43.716;20.668;2023-01-19T07:28:52;10.10;99.90
42989;DHT22;28622;43.716;20.668;2023-01-19T07:31:19;10.10;99.90
42989;DHT22;28622;43.716;20.668;2023-01-19T07:33:45;10.20;99.90
42989;DHT22;28622;43.716;20.668;2023-01-19T07:36:11;10.30;99.90
42989;DHT22;28622;43.716;20.668;2023-01-19T07:38:38;10.30;99.90
42989;DHT22;28622;43.716;20.668;2023-01-19T07:41:05;10.40;99.90
42989;DHT22;28622;43.716;20.668;2023-01-19T07:43:32;10.40;99.90
42989;DHT22;28622;43.716;20.668;2023-01-19T07:45:59;10.50;99.90
42989;DHT22;28622;43.716;20.668;2023-01-19T07:48:26;10.70;99.90
42989;DHT22;28622;43.716;20.668;2023-01-19T07:50:52;10.70;99.90
42989;DHT22;28622;43.716;20.668;2023-01-19T07:53:18;10.80;99.90
42989;DHT22;28622;43.716;20.668;2023-01-19T07:55:44;10.80;99.90
42989;DHT22;28622;43.716;20.668;2023-01-19T07:58:12;10.90;99.90
42989;DHT22;28622;43.716;20.668;2023-01-19T08:00:39;11.00;99.90
42989;DHT22;28622;43.716;20.668;2023-01-19T08:03:04;11.00;99.90
42989;DHT22;28622;43.716;20.668;2023-01-19T08:05:31;11.00;99.90
42989;DHT22;28622;43.716;20.668;2023-01-19T08:07:58;10.90;99.90
42989;DHT22;28622;43.716;20.668;2023-01-19T08:10:25;10.90;99.90
42989;DHT22;28622;43.716;20.668;2023-01-19T08:12:56;10.80;99.90
42989;DHT22;28622;43.716;20.668;2023-01-19T08:15:23;10.80;99.90
42989;DHT22;28622;43.716;20.668;2023-01-19T08:17:56;10.70;99.90
42989;DHT22;28622;43.716;20.668;2023-01-19T08:20:22;10.70;99.90
42989;DHT22;28622;43.716;20.668;2023-01-19T08:22:48;10.70;99.90
42989;DHT22;28622;43.716;20.668;2023-01-19T08:25:14;10.60;99.90
42989;DHT22;28622;43.716;20.668;2023-01-19T08:27:40;10.70;99.90
42989;DHT22;28622;43.716;20.668;2023-01-19T08:30:06;10.70;99.90
42989;DHT22;28622;43.716;20.668;2023-01-19T08:32:32;10.70;99.90
42989;DHT22;28622;43.716;20.668;2023-01-19T08:34:58;10.70;99.90
42989;DHT22;28622;43.716;20.668;2023-01-19T08:37:24;10.90;99.90
42989;DHT22;28622;43.716;20.668;2023-01-19T08:39:49;11.10;99.90
42989;DHT22;28622;43.716;20.668;2023-01-19T08:42:18;11.30;99.90
42989;DHT22;28622;43.716;20.668;2023-01-19T08:44:43;11.50;99.90
42989;DHT22;28622;43.716;20.668;2023-01-19T08:47:09;11.60;99.90
42989;DHT22;28622;43.716;20.668;2023-01-19T08:49:35;11.80;99.90
42989;DHT22;28622;43.716;20.668;2023-01-19T08:52:00;11.80;99.90
42989;DHT22;28622;43.716;20.668;2023-01-19T08:54:27;11.80;99.90
42989;DHT22;28622;43.716;20.668;2023-01-19T08:56:53;11.80;99.90
42989;DHT22;28622;43.716;20.668;2023-01-19T08:59:19;11.90;99.90
42989;DHT22;28622;43.716;20.668;2023-01-19T09:01:45;11.90;99.90
42989;DHT22;28622;43.716;20.668;2023-01-19T09:04:10;12.00;99.90
42989;DHT22;28622;43.716;20.668;2023-01-19T09:06:36;12.00;99.90
42989;DHT22;28622;43.716;20.668;2023-01-19T09:09:02;12.00;99.90
42989;DHT22;28622;43.716;20.668;2023-01-19T09:11:28;12.10;99.90
42989;DHT22;28622;43.716;20.668;2023-01-19T09:13:55;12.10;99.90
42989;DHT22;28622;43.716;20.668;2023-01-19T09:16:20;12.10;99.90
42989;DHT22;28622;43.716;20.668;2023-01-19T09:18:46;12.20;99.90
42989;DHT22;28622;43.716;20.668;2023-01-19T09:21:12;12.20;99.90
42989;DHT22;28622;43.716;20.668;2023-01-19T09:23:39;12.20;99.90
42989;DHT22;28622;43.716;20.668;2023-01-19T09:26:05;12.20;99.90
42989;DHT22;28622;43.716;20.668;2023-01-19T09:28:32;12.20;99.90
42989;DHT22;28622;43.716;20.668;2023-01-19T09:30:57;12.20;99.90
42989;DHT22;28622;43.716;20.668;2023-01-19T09:33:23;12.20;99.90
42989;DHT22;28622;43.716;20.668;2023-01-19T09:35:49;12.10;99.90
42989;DHT22;28622;43.716;20.668;2023-01-19T09:38:17;12.20;99.90
42989;DHT22;28622;43.716;20.668;2023-01-19T09:46:18;12.30;99.90
42989;DHT22;28622;43.716;20.668;2023-01-19T09:49:30;12.30;99.90
42989;DHT22;28622;43.716;20.668;2023-01-19T09:51:36;12.30;99.90
42989;DHT22;28622;43.716;20.668;2023-01-19T09:54:18;12.20;99.90
42989;DHT22;28622;43.716;20.668;2023-01-19T09:56:47;12.30;99.90
42989;DHT22;28622;43.716;20.668;2023-01-19T10:10:19;12.40;99.90
42989;DHT22;28622;43.716;20.668;2023-01-19T10:18:28;12.30;99.90
42989;DHT22;28622;43.716;20.668;2023-01-19T10:21:05;12.30;99.90
42989;DHT22;28622;43.716;20.668;2023-01-19T10:23:49;12.30;99.90
42989;DHT22;28622;43.716;20.668;2023-01-19T10:26:38;12.20;99.90
42989;DHT22;28622;43.716;20.668;2023-01-19T10:29:09;12.20;99.90
42989;DHT22;28622;43.716;20.668;2023-01-19T10:31:38;12.20;99.90
42989;DHT22;28622;43.716;20.668;2023-01-19T10:34:12;12.20;99.90
42989;DHT22;28622;43.716;20.668;2023-01-19T10:36:47;12.20;99.90
42989;DHT22;28622;43.716;20.668;2023-01-19T10:39:18;12.20;99.90
42989;DHT22;28622;43.716;20.668;2023-01-19T10:41:52;12.20;99.90
42989;DHT22;28622;43.716;20.668;2023-01-19T10:44:25;12.20;99.90
42989;DHT22;28622;43.716;20.668;2023-01-19T10:46:54;12.20;99.90
42989;DHT22;28622;43.716;20.668;2023-01-19T10:49:30;12.10;99.90
42989;DHT22;28622;43.716;20.668;2023-01-19T10:52:01;12.10;99.90
42989;DHT22;28622;43.716;20.668;2023-01-19T10:54:29;12.10;99.90
42989;DHT22;28622;43.716;20.668;2023-01-19T10:57:04;12.20;99.90
42989;DHT22;28622;43.716;20.668;2023-01-19T10:59:36;12.20;99.90
42989;DHT22;28622;43.716;20.668;2023-01-19T11:02:23;12.20;99.90
42989;DHT22;28622;43.716;20.668;2023-01-19T11:04:55;12.30;99.90
42989;DHT22;28622;43.716;20.668;2023-01-19T11:12:39;12.40;99.90
42989;DHT22;28622;43.716;20.668;2023-01-19T11:15:15;12.40;99.90
42989;DHT22;28622;43.716;20.668;2023-01-19T11:17:46;12.40;99.90
42989;DHT22;28622;43.716;20.668;2023-01-19T11:20:21;12.40;99.90
42989;DHT22;28622;43.716;20.668;2023-01-19T11:22:53;12.40;99.90
42989;DHT22;28622;43.716;20.668;2023-01-19T11:25:30;12.40;99.90
42989;DHT22;28622;43.716;20.668;2023-01-19T11:27:57;12.50;99.90
42989;DHT22;28622;43.716;20.668;2023-01-19T11:30:25;12.50;99.90
42989;DHT22;28622;43.716;20.668;2023-01-19T11:32:51;12.50;99.90
42989;DHT22;28622;43.716;20.668;2023-01-19T11:35:38;12.50;99.90
42989;DHT22;28622;43.716;20.668;2023-01-19T11:40:37;12.60;99.90
42989;DHT22;28622;43.716;20.668;2023-01-19T11:43:04;12.50;99.90
42989;DHT22;28622;43.716;20.668;2023-01-19T11:45:31;12.40;99.90
42989;DHT22;28622;43.716;20.668;2023-01-19T11:48:03;12.50;99.90
42989;DHT22;28622;43.716;20.668;2023-01-19T11:50:43;12.40;99.90
42989;DHT22;28622;43.716;20.668;2023-01-19T11:53:26;12.50;99.90
42989;DHT22;28622;43.716;20.668;2023-01-19T11:58:26;12.60;99.90
42989;DHT22;28622;43.716;20.668;2023-01-19T12:01:15;12.60;99.90
42989;DHT22;28622;43.716;20.668;2023-01-19T12:03:55;12.60;99.90
42989;DHT22;28622;43.716;20.668;2023-01-19T12:06:31;12.50;99.90
42989;DHT22;28622;43.716;20.668;2023-01-19T12:09:11;12.40;99.90
42989;DHT22;28622;43.716;20.668;2023-01-19T12:12:00;12.50;99.90
42989;DHT22;28622;43.716;20.668;2023-01-19T12:14:35;12.40;99.90
42989;DHT22;28622;43.716;20.668;2023-01-19T12:17:04;12.40;99.90
42989;DHT22;28622;43.716;20.668;2023-01-19T12:19:41;12.30;99.90
42989;DHT22;28622;43.716;20.668;2023-01-19T12:22:15;12.30;99.90
42989;DHT22;28622;43.716;20.668;2023-01-19T12:25:13;12.30;99.90
42989;DHT22;28622;43.716;20.668;2023-01-19T12:27:43;12.30;99.90
42989;DHT22;28622;43.716;20.668;2023-01-19T12:30:18;12.30;99.90
42989;DHT22;28622;43.716;20.668;2023-01-19T12:32:44;12.50;99.90
42989;DHT22;28622;43.716;20.668;2023-01-19T12:41:18;13.30;99.90
42989;DHT22;28622;43.716;20.668;2023-01-19T12:43:46;13.60;99.90
42989;DHT22;28622;43.716;20.668;2023-01-19T12:48:51;13.90;99.30
42989;DHT22;28622;43.716;20.668;2023-01-19T12:51:27;14.00;99.00
42989;DHT22;28622;43.716;20.668;2023-01-19T12:53:54;14.20;99.00
42989;DHT22;28622;43.716;20.668;2023-01-19T12:56:30;14.30;98.70
42989;DHT22;28622;43.716;20.668;2023-01-19T12:58:57;14.50;98.70
42989;DHT22;28622;43.716;20.668;2023-01-19T13:01:23;14.80;98.00
42989;DHT22;28622;43.716;20.668;2023-01-19T13:04:04;15.00;97.30
42989;DHT22;28622;43.716;20.668;2023-01-19T13:09:35;14.80;97.10
42989;DHT22;28622;43.716;20.668;2023-01-19T13:12:20;14.80;96.20
42989;DHT22;28622;43.716;20.668;2023-01-19T13:14:47;14.80;96.00
42989;DHT22;28622;43.716;20.668;2023-01-19T13:17:32;14.90;97.30
42989;DHT22;28622;43.716;20.668;2023-01-19T13:25:28;14.40;96.70
42989;DHT22;28622;43.716;20.668;2023-01-19T13:27:55;14.20;96.90
42989;DHT22;28622;43.716;20.668;2023-01-19T13:30:24;14.10;97.10
42989;DHT22;28622;43.716;20.668;2023-01-19T13:33:02;14.20;98.10
42989;DHT22;28622;43.716;20.668;2023-01-19T13:35:29;14.20;97.10
42989;DHT22;28622;43.716;20.668;2023-01-19T13:37:56;14.40;97.20
42989;DHT22;28622;43.716;20.668;2023-01-19T13:40:26;14.60;97.00
42989;DHT22;28622;43.716;20.668;2023-01-19T13:42:55;14.60;97.40
42989;DHT22;28622;43.716;20.668;2023-01-19T13:45:34;14.50;96.50
42989;DHT22;28622;43.716;20.668;2023-01-19T13:48:05;14.60;96.60
42989;DHT22;28622;43.716;20.668;2023-01-19T13:50:34;14.90;96.40
42989;DHT22;28622;43.716;20.668;2023-01-19T13:53:02;15.00;95.60
42989;DHT22;28622;43.716;20.668;2023-01-19T13:55:30;15.10;95.60
42989;DHT22;28622;43.716;20.668;2023-01-19T13:57:57;15.10;95.90
42989;DHT22;28622;43.716;20.668;2023-01-19T14:00:28;15.20;95.00
42989;DHT22;28622;43.716;20.668;2023-01-19T14:03:12;15.00;95.00
42989;DHT22;28622;43.716;20.668;2023-01-19T14:05:40;14.80;95.80
42989;DHT22;28622;43.716;20.668;2023-01-19T14:15:48;14.70;96.50
42989;DHT22;28622;43.716;20.668;2023-01-19T14:23:43;14.10;96.20
42989;DHT22;28622;43.716;20.668;2023-01-19T14:37:02;12.90;97.90
42989;DHT22;28622;43.716;20.668;2023-01-19T14:39:31;12.90;98.30
42989;DHT22;28622;43.716;20.668;2023-01-19T14:41:59;12.90;98.90
42989;DHT22;28622;43.716;20.668;2023-01-19T14:44:34;12.70;99.20
42989;DHT22;28622;43.716;20.668;2023-01-19T14:47:02;12.60;99.30
42989;DHT22;28622;43.716;20.668;2023-01-19T14:51:55;12.50;99.70
42989;DHT22;28622;43.716;20.668;2023-01-19T14:54:28;12.40;99.80
42989;DHT22;28622;43.716;20.668;2023-01-19T14:56:56;12.30;99.90
42989;DHT22;28622;43.716;20.668;2023-01-19T14:59:21;12.30;99.90
42989;DHT22;28622;43.716;20.668;2023-01-19T15:01:47;12.30;99.90
42989;DHT22;28622;43.716;20.668;2023-01-19T15:04:13;12.20;99.90
42989;DHT22;28622;43.716;20.668;2023-01-19T15:06:40;12.20;99.90
42989;DHT22;28622;43.716;20.668;2023-01-19T15:09:12;12.10;99.90
42989;DHT22;28622;43.716;20.668;2023-01-19T15:11:39;12.10;99.90
42989;DHT22;28622;43.716;20.668;2023-01-19T15:14:07;12.10;99.90
42989;DHT22;28622;43.716;20.668;2023-01-19T15:16:35;12.00;99.90
42989;DHT22;28622;43.716;20.668;2023-01-19T15:19:00;12.00;99.90
42989;DHT22;28622;43.716;20.668;2023-01-19T15:21:26;12.00;99.90
42989;DHT22;28622;43.716;20.668;2023-01-19T15:23:52;12.00;99.90
42989;DHT22;28622;43.716;20.668;2023-01-19T15:26:24;12.00;99.90
42989;DHT22;28622;43.716;20.668;2023-01-19T15:28:51;11.90;99.90
42989;DHT22;28622;43.716;20.668;2023-01-19T15:31:21;11.70;99.90
42989;DHT22;28622;43.716;20.668;2023-01-19T15:34:02;11.70;99.90
42989;DHT22;28622;43.716;20.668;2023-01-19T15:36:27;11.70;99.90
42989;DHT22;28622;43.716;20.668;2023-01-19T15:38:53;11.70;99.90
42989;DHT22;28622;43.716;20.668;2023-01-19T15:41:22;11.60;99.90
42989;DHT22;28622;43.716;20.668;2023-01-19T15:43:48;11.50;99.90
42989;DHT22;28622;43.716;20.668;2023-01-19T15:46:15;11.50;99.90
42989;DHT22;28622;43.716;20.668;2023-01-19T15:48:43;11.40;99.90
42989;DHT22;28622;43.716;20.668;2023-01-19T15:51:35;11.40;99.90
42989;DHT22;28622;43.716;20.668;2023-01-19T15:54:00;11.40;99.90
42989;DHT22;28622;43.716;20.668;2023-01-19T15:56:28;11.30;99.90
42989;DHT22;28622;43.716;20.668;2023-01-19T15:58:58;11.30;99.90
42989;DHT22;28622;43.716;20.668;2023-01-19T16:01:26;11.30;99.90
42989;DHT22;28622;43.716;20.668;2023-01-19T16:03:57;11.30;99.90
42989;DHT22;28622;43.716;20.668;2023-01-19T16:06:24;11.20;99.90
42989;DHT22;28622;43.716;20.668;2023-01-19T16:08:50;11.10;99.90
42989;DHT22;28622;43.716;20.668;2023-01-19T16:11:16;11.10;99.90
42989;DHT22;28622;43.716;20.668;2023-01-19T16:13:46;11.10;99.90
42989;DHT22;28622;43.716;20.668;2023-01-19T16:16:17;11.10;99.90
42989;DHT22;28622;43.716;20.668;2023-01-19T16:18:43;11.10;99.90
42989;DHT22;28622;43.716;20.668;2023-01-19T16:21:10;11.10;99.90
42989;DHT22;28622;43.716;20.668;2023-01-19T16:23:36;11.10;99.90
42989;DHT22;28622;43.716;20.668;2023-01-19T16:26:05;11.10;99.90
42989;DHT22;28622;43.716;20.668;2023-01-19T16:28:35;11.00;99.90
42989;DHT22;28622;43.716;20.668;2023-01-19T16:31:02;11.00;99.90
42989;DHT22;28622;43.716;20.668;2023-01-19T16:33:28;10.90;99.90
42989;DHT22;28622;43.716;20.668;2023-01-19T16:35:54;10.90;99.90
42989;DHT22;28622;43.716;20.668;2023-01-19T16:38:23;10.90;99.90
42989;DHT22;28622;43.716;20.668;2023-01-19T16:40:49;10.90;99.90
42989;DHT22;28622;43.716;20.668;2023-01-19T16:43:15;10.80;99.90
42989;DHT22;28622;43.716;20.668;2023-01-19T16:46:16;10.70;99.90
42989;DHT22;28622;43.716;20.668;2023-01-19T16:48:42;10.70;99.90
42989;DHT22;28622;43.716;20.668;2023-01-19T16:51:08;10.70;99.90
42989;DHT22;28622;43.716;20.668;2023-01-19T16:53:34;10.60;99.90
42989;DHT22;28622;43.716;20.668;2023-01-19T16:56:11;10.70;99.90
42989;DHT22;28622;43.716;20.668;2023-01-19T16:58:38;10.60;99.90
42989;DHT22;28622;43.716;20.668;2023-01-19T17:03:36;10.60;99.90
42989;DHT22;28622;43.716;20.668;2023-01-19T17:06:04;10.60;99.90
42989;DHT22;28622;43.716;20.668;2023-01-19T17:08:30;10.60;99.90
42989;DHT22;28622;43.716;20.668;2023-01-19T17:10:55;10.60;99.90
42989;DHT22;28622;43.716;20.668;2023-01-19T17:13:21;10.60;99.90
42989;DHT22;28622;43.716;20.668;2023-01-19T17:15:47;10.60;99.90
42989;DHT22;28622;43.716;20.668;2023-01-19T17:18:13;10.60;99.90
42989;DHT22;28622;43.716;20.668;2023-01-19T17:20:39;10.50;99.90